createdAt,value
2018-10-12T00:00:24.652Z,51.84
2018-10-12T00:01:25.178Z,52.22
2018-10-12T00:02:26.534Z,52
2018-10-12T00:03:27.642Z,51.72
2018-10-12T00:04:27.990Z,53.16
2018-10-12T00:05:29.903Z,52.68
2018-10-12T00:06:30.254Z,52.58
2018-10-12T00:07:30.769Z,52.58
2018-10-12T00:08:31.570Z,52.58
2018-10-12T00:09:32.370Z,51.91
2018-10-12T00:10:33.445Z,51.81
2018-10-12T00:11:34.522Z,52
2018-10-12T00:12:35.324Z,52
2018-10-12T00:13:36.394Z,51.72
2018-10-12T00:14:37.189Z,51.91
2018-10-12T00:15:37.982Z,51.72
2018-10-12T00:16:38.500Z,51.81
2018-10-12T00:17:40.020Z,51.53
2018-10-12T00:18:40.543Z,51.53
2018-10-12T00:19:42.063Z,51.62
2018-10-12T00:20:42.860Z,51.33
2018-10-12T00:21:43.558Z,51.74
2018-10-12T00:22:44.628Z,51.64
2018-10-12T00:23:45.712Z,51.91
2018-10-12T00:24:46.339Z,51.81
2018-10-12T00:25:47.408Z,51.93
2018-10-12T00:26:47.936Z,51.64
2018-10-12T00:27:48.448Z,51.62
2018-10-12T00:28:48.523Z,51.81
2018-10-12T00:29:49.874Z,51.81
2018-10-12T00:30:50.947Z,51.93
2018-10-12T00:31:51.474Z,51.91
2018-10-12T00:32:52.270Z,52.12
2018-10-12T00:33:53.064Z,52.61
2018-10-12T00:34:54.582Z,52.8
2018-10-12T00:35:55.378Z,52.51
2018-10-12T00:36:55.896Z,52.68
2018-10-12T00:37:56.419Z,52.58
2018-10-12T00:38:57.658Z,52.97
2018-10-12T00:39:58.452Z,53.06
2018-10-12T00:40:59.529Z,53.06
2018-10-12T00:42:00.497Z,53.83
2018-10-12T00:43:01.136Z,54.22
2018-10-12T00:44:01.772Z,54.22
2018-10-12T00:45:02.853Z,54.12
2018-10-12T00:46:02.648Z,54.22
2018-10-12T00:47:03.168Z,54.12
2018-10-12T00:48:04.242Z,54.22
2018-10-12T00:49:04.760Z,54.22
2018-10-12T00:50:05.388Z,54.99
2018-10-12T00:51:05.741Z,54.12
2018-10-12T00:52:06.545Z,54.31
2018-10-12T00:53:07.489Z,54.89
2018-10-12T00:54:07.840Z,54.99
2018-10-12T00:55:08.639Z,54.89
2018-10-12T00:56:09.709Z,54.79
2018-10-12T00:57:11.508Z,54.89
2018-10-12T00:58:12.302Z,55.27
2018-10-12T00:59:14.098Z,54.69
2018-10-12T01:00:15.172Z,54.6
2018-10-12T01:01:15.968Z,54.69
2018-10-12T01:02:16.946Z,54.69
2018-10-12T01:03:18.187Z,54.89
2018-10-12T01:04:19.264Z,54.79
2018-10-12T01:05:20.101Z,54.89
2018-10-12T01:06:20.175Z,54.89
2018-10-12T01:07:21.252Z,54.89
2018-10-12T01:08:21.769Z,55.27
2018-10-12T01:09:22.843Z,55.18
2018-10-12T01:10:23.955Z,54.69
2018-10-12T01:11:24.195Z,55.24
2018-10-12T01:12:25.301Z,54.89
2018-10-12T01:13:26.105Z,55.08
2018-10-12T01:14:27.180Z,54.99
2018-10-12T01:15:27.976Z,55.08
2018-10-12T01:16:28.784Z,55.08
2018-10-12T01:17:29.302Z,55.05
2018-10-12T01:18:30.374Z,55.27
2018-10-12T01:19:31.175Z,55.46
2018-10-12T01:20:32.967Z,57.1
2018-10-12T01:21:33.599Z,57.36
2018-10-12T01:22:34.154Z,58.61
2018-10-12T01:23:34.667Z,57.36
2018-10-12T01:24:35.461Z,58.15
2018-10-12T01:25:36.535Z,57.93
2018-10-12T01:26:36.606Z,58.8
2018-10-12T01:27:37.403Z,58.61
2018-10-12T01:28:37.918Z,58.99
2018-10-12T01:29:38.722Z,59.09
2018-10-12T01:30:40.244Z,59.19
2018-10-12T01:31:40.313Z,59.09
2018-10-12T01:32:41.569Z,59.28
2018-10-12T01:33:42.090Z,59.47
2018-10-12T01:34:42.733Z,60.24
2018-10-12T01:35:42.969Z,60.98
2018-10-12T01:36:43.765Z,60.43
2018-10-12T01:37:44.399Z,60.02
2018-10-12T01:38:44.750Z,60.11
2018-10-12T01:39:45.823Z,60.31
2018-10-12T01:40:46.621Z,60.11
2018-10-12T01:41:47.423Z,60.98
2018-10-12T01:42:48.972Z,60.11
2018-10-12T01:43:49.325Z,60.02
2018-10-12T01:44:50.681Z,60.5
2018-10-12T01:45:51.753Z,59.92
2018-10-12T01:46:53.104Z,60.4
2018-10-12T01:47:53.208Z,60.24
2018-10-12T01:48:53.725Z,59.44
2018-10-12T01:49:55.076Z,58.67
2018-10-12T01:50:56.153Z,58.39
2018-10-12T01:51:56.392Z,58.67
2018-10-12T01:52:57.474Z,59.64
2018-10-12T01:53:57.992Z,59.44
2018-10-12T01:54:58.791Z,59.73
2018-10-12T01:55:59.872Z,58.96
2018-10-12T01:57:00.948Z,59.44
2018-10-12T01:58:01.471Z,59.92
2018-10-12T01:59:02.266Z,60.69
2018-10-12T02:00:03.345Z,61.08
2018-10-12T02:01:04.252Z,60.6
2018-10-12T02:02:04.324Z,60.11
2018-10-12T02:03:05.573Z,59.73
2018-10-12T02:04:06.927Z,58.48
2018-10-12T02:05:08.006Z,58.39
2018-10-12T02:06:08.803Z,57.62
2018-10-12T02:07:10.161Z,57.23
2018-10-12T02:08:10.681Z,58
2018-10-12T02:09:12.036Z,59.92
2018-10-12T02:10:12.833Z,57.9
2018-10-12T02:11:14.351Z,58.13
2018-10-12T02:12:15.145Z,60.82
2018-10-12T02:13:16.673Z,57.36
2018-10-12T02:14:17.196Z,58.1
2018-10-12T02:15:17.991Z,56.37
2018-10-12T02:16:18.623Z,56.21
2018-10-12T02:17:19.973Z,57.55
2018-10-12T02:18:21.049Z,56.49
2018-10-12T02:19:21.845Z,55.91
2018-10-12T02:20:22.922Z,55.53
2018-10-12T02:21:23.447Z,55.15
2018-10-12T02:22:24.806Z,56.78
2018-10-12T02:23:25.052Z,56.11
2018-10-12T02:24:25.685Z,54.96
2018-10-12T02:25:26.637Z,55.34
2018-10-12T02:26:27.265Z,55.05
2018-10-12T02:27:27.784Z,55.15
2018-10-12T02:28:28.579Z,54.86
2018-10-12T02:29:28.932Z,55.15
2018-10-12T02:30:30.287Z,55.05
2018-10-12T02:31:30.917Z,55.15
2018-10-12T02:32:32.101Z,54.79
2018-10-12T02:33:32.637Z,54.96
2018-10-12T02:34:33.431Z,54.96
2018-10-12T02:35:34.226Z,54.96
2018-10-12T02:36:35.580Z,54.96
2018-10-12T02:37:36.930Z,55.24
2018-10-12T02:38:37.284Z,55.05
2018-10-12T02:39:38.353Z,55.08
2018-10-12T02:40:39.100Z,55.37
2018-10-12T02:41:39.894Z,55.08
2018-10-12T02:42:40.809Z,55.37
2018-10-12T02:43:41.611Z,56.23
2018-10-12T02:44:41.852Z,56.3
2018-10-12T02:45:42.922Z,56.81
2018-10-12T02:46:43.273Z,56.4
2018-10-12T02:47:43.627Z,55.53
2018-10-12T02:48:43.977Z,54.86
2018-10-12T02:49:45.493Z,55.18
2018-10-12T02:50:47.124Z,55.94
2018-10-12T02:51:48.194Z,56.98
2018-10-12T02:52:48.751Z,56.71
2018-10-12T02:53:49.587Z,56.49
2018-10-12T02:54:50.659Z,56.59
2018-10-12T02:55:51.740Z,56.59
2018-10-12T02:56:52.823Z,57.55
2018-10-12T02:57:53.164Z,58.61
2018-10-12T02:58:54.243Z,59.28
2018-10-12T02:59:55.036Z,60.02
2018-10-12T03:00:56.109Z,59.83
2018-10-12T03:01:57.463Z,59.06
2018-10-12T03:02:58.555Z,59.64
2018-10-12T03:03:59.371Z,59.44
2018-10-12T03:04:59.444Z,60.21
2018-10-12T03:06:00.240Z,59.54
2018-10-12T03:07:01.037Z,60.02
2018-10-12T03:08:02.679Z,60.88
2018-10-12T03:09:02.920Z,60.98
2018-10-12T03:10:04.006Z,60.31
2018-10-12T03:11:04.802Z,59.73
2018-10-12T03:12:05.878Z,61.27
2018-10-12T03:13:06.789Z,62.32
2018-10-12T03:14:07.172Z,61.94
2018-10-12T03:15:07.525Z,61.14
2018-10-12T03:16:09.432Z,60.11
2018-10-12T03:17:09.790Z,59.7
2018-10-12T03:18:09.859Z,60.02
2018-10-12T03:19:09.934Z,60.08
2018-10-12T03:20:10.568Z,60.85
2018-10-12T03:21:11.089Z,60.85
2018-10-12T03:22:12.169Z,62.01
2018-10-12T03:23:12.510Z,62.48
2018-10-12T03:24:13.752Z,63.03
2018-10-12T03:25:14.844Z,63.51
2018-10-12T03:26:14.915Z,63.99
2018-10-12T03:27:16.567Z,63.7
2018-10-12T03:28:17.636Z,63.99
2018-10-12T03:29:17.714Z,63.12
2018-10-12T03:30:19.090Z,63.22
2018-10-12T03:31:20.559Z,63.79
2018-10-12T03:32:21.192Z,63.79
2018-10-12T03:33:21.832Z,63.51
2018-10-12T03:34:22.923Z,63.89
2018-10-12T03:35:24.277Z,63.99
2018-10-12T03:36:25.180Z,63.79
2018-10-12T03:37:26.179Z,64.09
2018-10-12T03:38:27.377Z,65.05
2018-10-12T03:39:28.474Z,65.14
2018-10-12T03:40:29.254Z,65.14
2018-10-12T03:41:30.047Z,65.01
2018-10-12T03:42:30.564Z,65.78
2018-10-12T03:43:32.361Z,66.35
2018-10-12T03:44:32.888Z,66.93
2018-10-12T03:45:34.023Z,66.13
2018-10-12T03:46:34.370Z,66.51
2018-10-12T03:47:35.723Z,66.8
2018-10-12T03:48:36.518Z,66.13
2018-10-12T03:49:37.154Z,67.66
2018-10-12T03:50:37.951Z,67.38
2018-10-12T03:51:39.304Z,66.22
2018-10-12T03:52:39.542Z,67.76
2018-10-12T03:53:40.337Z,66.71
2018-10-12T03:54:41.143Z,67.28
2018-10-12T03:55:41.216Z,67.47
2018-10-12T03:56:41.846Z,67.47
2018-10-12T03:57:42.917Z,67.47
2018-10-12T03:58:43.717Z,66.99
2018-10-12T03:59:45.073Z,67.57
2018-10-12T04:00:45.590Z,68.14
2018-10-12T04:01:46.945Z,67.76
2018-10-12T04:02:48.856Z,67.38
2018-10-12T04:03:49.710Z,68.05
2018-10-12T04:04:50.414Z,67.66
2018-10-12T04:05:51.492Z,68.14
2018-10-12T04:06:52.285Z,68.05
2018-10-12T04:07:52.637Z,67.85
2018-10-12T04:08:53.435Z,67.85
2018-10-12T04:09:54.786Z,68.59
2018-10-12T04:10:55.702Z,68.59
2018-10-12T04:11:56.220Z,68.4
2018-10-12T04:12:57.019Z,68.97
2018-10-12T04:13:58.383Z,68.87
2018-10-12T04:14:59.216Z,68.49
2018-10-12T04:16:00.577Z,68.78
2018-10-12T04:17:01.644Z,69.29
2018-10-12T04:18:02.836Z,68.78
2018-10-12T04:19:03.907Z,69.68
2018-10-12T04:20:04.434Z,69.26
2018-10-12T04:21:04.950Z,69.74
2018-10-12T04:22:06.031Z,68.97
2018-10-12T04:23:06.826Z,68.78
2018-10-12T04:24:07.622Z,69.64
2018-10-12T04:25:08.426Z,70.21
2018-10-12T04:26:09.515Z,71.08
2018-10-12T04:27:10.613Z,71.84
2018-10-12T04:28:11.405Z,72.71
2018-10-12T04:29:12.479Z,72.71
2018-10-12T04:30:13.270Z,72.9
2018-10-12T04:31:13.622Z,72.9
2018-10-12T04:32:14.426Z,73.47
2018-10-12T04:33:15.499Z,73.47
2018-10-12T04:34:16.015Z,73.44
2018-10-12T04:35:00.843Z,74.11
2018-10-12T04:36:01.971Z,75.07
2018-10-12T04:37:02.207Z,74.87
2018-10-12T04:38:03.114Z,75.73
2018-10-12T04:39:04.464Z,75.64
2018-10-12T04:40:04.982Z,75.35
2018-10-12T04:41:06.055Z,75.93
2018-10-12T04:42:06.853Z,75.83
2018-10-12T04:43:07.649Z,75.54
2018-10-12T04:44:08.446Z,76.12
2018-10-12T04:45:08.966Z,74.4
2018-10-12T04:46:09.501Z,72.09
2018-10-12T04:47:11.153Z,71.71
2018-10-12T04:48:11.649Z,71.04
2018-10-12T04:49:12.726Z,70.28
2018-10-12T04:50:13.687Z,70.18
2018-10-12T04:51:14.758Z,70.09
2018-10-12T04:52:15.552Z,69.51
2018-10-12T04:53:15.927Z,69.54
2018-10-12T04:54:16.989Z,69.07
2018-10-12T04:55:17.915Z,69.45
2018-10-12T04:56:18.470Z,69.07
2018-10-12T04:57:19.561Z,68.87
2018-10-12T04:58:20.357Z,69.54
2018-10-12T04:59:21.154Z,69.54
2018-10-12T05:00:21.951Z,69.99
2018-10-12T05:01:23.304Z,70.18
2018-10-12T05:02:24.104Z,69.99
2018-10-12T05:03:25.178Z,71.04
2018-10-12T05:04:25.537Z,71.14
2018-10-12T05:05:25.781Z,71.23
2018-10-12T05:06:27.188Z,71.91
2018-10-12T05:07:27.707Z,71.81
2018-10-12T05:08:29.132Z,71.81
2018-10-12T05:09:30.214Z,71.62
2018-10-12T05:10:31.300Z,71.62
2018-10-12T05:11:32.099Z,71.33
2018-10-12T05:12:33.453Z,72.38
2018-10-12T05:13:34.537Z,72.58
2018-10-12T05:14:35.170Z,72.86
2018-10-12T05:15:35.971Z,73.15
2018-10-12T05:16:36.500Z,73.63
2018-10-12T05:17:37.573Z,72.25
2018-10-12T05:18:38.093Z,72.06
2018-10-12T05:19:39.168Z,71.48
2018-10-12T05:20:39.243Z,71.87
2018-10-12T05:21:40.312Z,71.58
2018-10-12T05:22:41.109Z,71.39
2018-10-12T05:23:42.018Z,71.52
2018-10-12T05:24:43.104Z,71.42
2018-10-12T05:25:44.015Z,71.81
2018-10-12T05:26:45.098Z,71.14
2018-10-12T05:27:46.452Z,71.23
2018-10-12T05:28:46.253Z,71.81
2018-10-12T05:29:47.493Z,71.81
2018-10-12T05:30:48.291Z,71.14
2018-10-12T05:31:49.085Z,71.23
2018-10-12T05:32:50.438Z,72
2018-10-12T05:33:51.070Z,71.52
2018-10-12T05:34:51.591Z,71.62
2018-10-12T05:35:52.720Z,71.71
2018-10-12T05:36:53.269Z,71.23
2018-10-12T05:37:53.395Z,71.33
2018-10-12T05:38:53.877Z,71.42
2018-10-12T05:39:55.676Z,71.81
2018-10-12T05:40:56.198Z,71.81
2018-10-12T05:41:56.999Z,71.42
2018-10-12T05:42:58.288Z,71.52
2018-10-12T05:43:58.416Z,71.52
2018-10-12T05:44:59.046Z,71.81
2018-10-12T05:46:00.125Z,71.81
2018-10-12T05:47:00.653Z,71.87
2018-10-12T05:48:01.019Z,72.06
2018-10-12T05:49:02.076Z,71.48
2018-10-12T05:50:02.031Z,71.77
2018-10-12T05:51:03.442Z,71.71
2018-10-12T05:52:03.859Z,71.68
2018-10-12T05:53:04.426Z,71.52
2018-10-12T05:54:05.225Z,72.06
2018-10-12T05:55:06.043Z,71.77
2018-10-12T05:56:06.561Z,72.06
2018-10-12T05:57:07.684Z,72.83
2018-10-12T05:58:08.528Z,72.63
2018-10-12T05:59:09.880Z,72.73
2018-10-12T06:00:10.984Z,71.81
2018-10-12T06:01:12.839Z,71.81
2018-10-12T06:02:13.953Z,71.91
2018-10-12T06:03:14.473Z,72.09
2018-10-12T06:04:15.279Z,72.06
2018-10-12T06:05:16.698Z,72.25
2018-10-12T06:06:17.561Z,72.25
2018-10-12T06:07:18.920Z,71.87
2018-10-12T06:08:19.747Z,71.87
2018-10-12T06:09:22.770Z,71.58
2018-10-12T06:10:22.630Z,71.77
2018-10-12T06:11:23.476Z,71.58
2018-10-12T06:12:23.580Z,71.48
2018-10-12T06:13:24.658Z,71.39
2018-10-12T06:14:25.730Z,71.2
2018-10-12T06:15:27.103Z,71.39
2018-10-12T06:16:27.431Z,71.2
2018-10-12T06:17:28.687Z,71.71
2018-10-12T06:18:29.710Z,72.29
2018-10-12T06:19:30.616Z,71.52
2018-10-12T06:20:31.798Z,71.52
2018-10-12T06:21:32.471Z,72.19
2018-10-12T06:22:33.486Z,72.77
2018-10-12T06:23:34.925Z,73.05
2018-10-12T06:24:38.699Z,72.86
2018-10-12T06:24:48.390Z,72.77
2018-10-12T06:25:49.473Z,72.86
2018-10-12T06:26:50.599Z,72.73
2018-10-12T06:27:51.496Z,73.3
2018-10-12T06:28:51.562Z,73.02
2018-10-12T06:29:54.432Z,72.92
2018-10-12T06:30:56.459Z,72.83
2018-10-12T06:31:55.858Z,72.63
2018-10-12T06:32:58.311Z,72.44
2018-10-12T06:33:58.315Z,72.77
2018-10-12T06:34:59.577Z,72.92
2018-10-12T06:36:00.670Z,72.34
2018-10-12T06:37:01.611Z,72.29
2018-10-12T06:38:02.858Z,71.97
2018-10-12T06:39:03.684Z,71.71
2018-10-12T06:40:04.487Z,71.71
2018-10-12T06:41:06.039Z,71.81
2018-10-12T06:42:05.989Z,71.33
2018-10-12T06:43:07.071Z,71.62
2018-10-12T06:44:07.768Z,71.62
2018-10-12T06:45:08.937Z,70.47
2018-10-12T06:46:08.944Z,70.47
2018-10-12T06:47:10.191Z,70.76
2018-10-12T06:48:10.987Z,70.18
2018-10-12T06:49:12.071Z,70.47
2018-10-12T06:50:13.158Z,69.74
2018-10-12T06:51:13.954Z,70.56
2018-10-12T06:52:14.943Z,69.74
2018-10-12T06:53:15.526Z,70.5
2018-10-12T06:54:16.447Z,69.54
2018-10-12T06:55:17.254Z,70.5
2018-10-12T06:56:17.788Z,69.64
2018-10-12T06:57:18.310Z,68.97
2018-10-12T06:58:19.556Z,67.47
2018-10-12T06:59:20.938Z,66.16
2018-10-12T07:00:21.020Z,64.95
2018-10-12T07:01:21.848Z,63.54
2018-10-12T07:02:23.204Z,62.58
2018-10-12T07:03:24.113Z,63.19
2018-10-12T07:04:24.605Z,62.23
2018-10-12T07:05:25.134Z,62.61
2018-10-12T07:06:25.559Z,62.52
2018-10-12T07:07:26.361Z,61.55
2018-10-12T07:08:27.608Z,62.71
2018-10-12T07:09:28.683Z,62.32
2018-10-12T07:10:29.767Z,61.94
2018-10-12T07:11:30.288Z,62.07
2018-10-12T07:12:31.369Z,62.26
2018-10-12T07:13:32.905Z,61.11
2018-10-12T07:14:33.682Z,61.2
2018-10-12T07:15:34.489Z,60.63
2018-10-12T07:16:35.492Z,61.3
2018-10-12T07:17:36.296Z,61.4
2018-10-12T07:18:37.675Z,61.11
2018-10-12T07:19:38.766Z,61.2
2018-10-12T07:20:39.054Z,61.36
2018-10-12T07:21:40.579Z,62.04
2018-10-12T07:22:41.394Z,61.94
2018-10-12T07:23:42.778Z,61.84
2018-10-12T07:24:43.858Z,61.65
2018-10-12T07:25:46.023Z,62.13
2018-10-12T07:26:45.706Z,61.87
2018-10-12T07:27:46.948Z,61.97
2018-10-12T07:28:48.028Z,62.29
2018-10-12T07:29:48.562Z,59.69
2018-10-12T07:30:49.495Z,60.01
2018-10-12T07:31:50.127Z,58.47
2018-10-12T07:32:49.922Z,57.6
2018-10-12T07:33:51.366Z,57.25
2018-10-12T07:34:52.451Z,56.9
2018-10-12T07:35:53.528Z,56.12
2018-10-12T07:36:54.890Z,55.48
2018-10-12T07:37:55.909Z,55.38
2018-10-12T07:38:56.436Z,55.07
2018-10-12T07:39:57.075Z,55.48
2018-10-12T07:40:57.167Z,56.82
2018-10-12T07:41:58.250Z,55.87
2018-10-12T07:42:59.060Z,56.99
2018-10-12T07:43:59.864Z,57.73
2018-10-12T07:45:00.672Z,58.31
2018-10-12T07:46:01.752Z,58.37
2018-10-12T07:47:03.305Z,59.63
2018-10-12T07:48:03.929Z,59.72
2018-10-12T07:49:04.293Z,60.88
2018-10-12T07:50:04.655Z,60.85
2018-10-12T07:51:06.016Z,61.23
2018-10-12T07:52:06.731Z,60.85
2018-10-12T07:53:08.923Z,60.46
2018-10-12T07:54:09.278Z,61.23
2018-10-12T07:55:10.226Z,61.14
2018-10-12T07:56:11.382Z,60.94
2018-10-12T07:57:12.079Z,61.23
2018-10-12T07:58:13.537Z,60.21
2018-10-12T07:59:14.108Z,60.59
2018-10-12T08:00:15.997Z,60.01
2018-10-12T08:01:15.910Z,58.67
2018-10-12T08:02:17.700Z,58.76
2018-10-12T08:03:17.610Z,58.95
2018-10-12T08:04:18.134Z,58.98
2018-10-12T08:05:19.936Z,58.4
2018-10-12T08:06:20.909Z,57.73
2018-10-12T08:07:21.919Z,58.02
2018-10-12T08:08:22.182Z,57.73
2018-10-12T08:09:22.837Z,58.4
2018-10-12T08:10:23.844Z,58.98
2018-10-12T08:11:25.211Z,58.22
2018-10-12T08:12:26.116Z,57.92
2018-10-12T08:13:27.365Z,58.12
2018-10-12T08:14:27.849Z,57.54
2018-10-12T08:15:28.927Z,57.54
2018-10-12T08:16:29.176Z,57.6
2018-10-12T08:17:30.462Z,58.09
2018-10-12T08:18:31.279Z,58.95
2018-10-12T08:19:32.098Z,59.92
2018-10-12T08:20:33.543Z,59.15
2018-10-12T08:21:33.989Z,58.57
2018-10-12T08:22:35.634Z,58.76
2018-10-12T08:23:35.509Z,58.76
2018-10-12T08:24:36.593Z,59.05
2018-10-12T08:25:37.675Z,59.24
2018-10-12T08:26:37.630Z,58.95
2018-10-12T08:27:38.992Z,59.05
2018-10-12T08:28:39.237Z,58.95
2018-10-12T08:29:39.858Z,59.34
2018-10-12T08:30:40.279Z,59.44
2018-10-12T08:31:41.638Z,59.15
2018-10-12T08:32:42.168Z,59.92
2018-10-12T08:33:43.533Z,59.63
2018-10-12T08:34:43.594Z,59.53
2018-10-12T08:35:45.024Z,59.72
2018-10-12T08:36:45.390Z,57.51
2018-10-12T08:37:46.484Z,57.25
2018-10-12T08:38:47.288Z,56.32
2018-10-12T08:39:48.377Z,56.6
2018-10-12T08:40:49.181Z,56.25
2018-10-12T08:41:50.774Z,57.02
2018-10-12T08:42:51.373Z,57.79
2018-10-12T08:43:51.963Z,57.02
2018-10-12T08:44:53.324Z,56.63
2018-10-12T08:45:54.283Z,56.35
2018-10-12T08:46:54.812Z,56.35
2018-10-12T08:47:56.372Z,56.37
2018-10-12T08:48:57.952Z,55.79
2018-10-12T08:49:58.592Z,55.22
2018-10-12T08:50:59.402Z,55.51
2018-10-12T08:52:00.284Z,55.6
2018-10-12T08:53:00.816Z,55.89
2018-10-12T08:54:01.465Z,57.62
2018-10-12T08:55:02.818Z,56.37
2018-10-12T08:56:02.626Z,56.18
2018-10-12T08:57:03.744Z,56.47
2018-10-12T08:58:04.306Z,56.47
2018-10-12T08:59:05.162Z,56.85
2018-10-12T09:00:05.959Z,57.14
2018-10-12T09:01:06.041Z,57.14
2018-10-12T09:02:07.134Z,57.24
2018-10-12T09:03:07.759Z,57.34
2018-10-12T09:04:08.752Z,57.43
2018-10-12T09:05:09.281Z,56.57
2018-10-12T09:06:10.088Z,56.95
2018-10-12T09:07:10.898Z,55.82
2018-10-12T09:08:11.876Z,54.09
2018-10-12T09:09:12.519Z,54.11
2018-10-12T09:10:13.602Z,54.86
2018-10-12T09:11:13.973Z,54.47
2018-10-12T09:12:14.777Z,54.76
2018-10-12T09:13:15.580Z,54.21
2018-10-12T09:14:17.122Z,54.88
2018-10-12T09:15:17.969Z,55.08
2018-10-12T09:16:19.635Z,55.27
2018-10-12T09:17:20.940Z,55.27
2018-10-12T09:18:22.892Z,54.79
2018-10-12T09:19:22.591Z,54.21
2018-10-12T09:20:22.807Z,55.08
2018-10-12T09:21:23.899Z,55.3
2018-10-12T09:22:24.980Z,53.95
2018-10-12T09:23:26.172Z,53.08
2018-10-12T09:24:26.730Z,53.66
2018-10-12T09:25:27.820Z,55.01
2018-10-12T09:26:28.070Z,55.1
2018-10-12T09:27:29.152Z,54.33
2018-10-12T09:28:30.525Z,57.14
2018-10-12T09:29:31.715Z,56.16
2018-10-12T09:30:32.617Z,55.49
2018-10-12T09:31:33.652Z,55.59
2018-10-12T09:32:34.454Z,54.91
2018-10-12T09:33:35.257Z,55.1
2018-10-12T09:34:36.059Z,53.95
2018-10-12T09:35:37.323Z,54.14
2018-10-12T09:36:37.821Z,55.4
2018-10-12T09:37:37.836Z,54.53
2018-10-12T09:38:39.275Z,54.53
2018-10-12T09:39:40.405Z,55.3
2018-10-12T09:40:40.158Z,55.01
2018-10-12T09:41:41.974Z,55.01
2018-10-12T09:42:46.501Z,56.16
2018-10-12T09:42:57.076Z,55.78
2018-10-12T09:43:56.838Z,53.95
2018-10-12T09:44:58.242Z,52.09
2018-10-12T09:45:58.323Z,52.76
2018-10-12T09:46:59.907Z,52.86
2018-10-12T09:47:14.304Z,53.34
2018-10-12T09:47:27.580Z,53.31
2018-10-12T09:47:39.577Z,53.34
2018-10-12T09:47:51.831Z,53.53
2018-10-12T09:48:03.880Z,53.22
2018-10-12T09:49:02.983Z,53.13
2018-10-12T09:50:04.342Z,53.34
2018-10-12T09:51:05.097Z,52.57
2018-10-12T09:52:06.277Z,52.86
2018-10-12T09:53:06.251Z,52.76
2018-10-12T09:54:07.361Z,53.85
2018-10-12T09:55:07.956Z,52.5
2018-10-12T09:56:08.836Z,51.39
2018-10-12T09:57:09.658Z,51.23
2018-10-12T09:58:10.740Z,49.51
2018-10-12T09:59:11.838Z,48.76
2018-10-12T10:00:12.667Z,48.88
2018-10-12T10:01:13.547Z,48.97
2018-10-12T10:02:16.310Z,47.81
2018-10-12T10:03:16.266Z,46.67
2018-10-12T10:04:16.119Z,46.31
2018-10-12T10:05:16.936Z,47.09
2018-10-12T10:06:18.396Z,45.56
2018-10-12T10:07:18.769Z,45.58
2018-10-12T10:08:20.797Z,46.65
2018-10-12T10:09:21.317Z,46.77
2018-10-12T10:10:21.522Z,44.44
2018-10-12T10:11:22.678Z,45.12
2018-10-12T10:12:22.937Z,44.23
2018-10-12T10:13:24.028Z,44.64
2018-10-12T10:14:24.290Z,44.34
2018-10-12T10:15:26.173Z,44.24
2018-10-12T10:16:26.057Z,44.73
2018-10-12T10:17:26.314Z,45.21
2018-10-12T10:18:27.129Z,45.02
2018-10-12T10:19:28.350Z,44.34
2018-10-12T10:20:29.440Z,43.47
2018-10-12T10:21:29.977Z,44.15
2018-10-12T10:22:32.095Z,43.68
2018-10-12T10:23:31.705Z,44.19
2018-10-12T10:24:32.543Z,45.55
2018-10-12T10:25:33.978Z,46.72
2018-10-12T10:26:34.792Z,43.63
2018-10-12T10:27:35.608Z,44.19
2018-10-12T10:28:37.254Z,44.46
2018-10-12T10:29:37.374Z,44.34
2018-10-12T10:30:37.907Z,44.15
2018-10-12T10:31:39.476Z,43.49
2018-10-12T10:32:40.670Z,43.78
2018-10-12T10:33:41.500Z,43.51
2018-10-12T10:34:42.041Z,42.83
2018-10-12T10:35:42.979Z,43.12
2018-10-12T10:36:43.769Z,42.93
2018-10-12T10:37:44.892Z,43.12
2018-10-12T10:38:45.428Z,42.93
2018-10-12T10:39:46.977Z,43.49
2018-10-12T10:40:47.270Z,44.87
2018-10-12T10:41:48.645Z,42.93
2018-10-12T10:42:49.453Z,43.49
2018-10-12T10:43:50.267Z,44.15
2018-10-12T10:44:51.081Z,44.9
2018-10-12T10:45:52.242Z,45.2
2018-10-12T10:46:52.610Z,44.42
2018-10-12T10:47:53.698Z,46.16
2018-10-12T10:48:54.072Z,45.41
2018-10-12T10:49:54.897Z,46.09
2018-10-12T10:50:56.164Z,44.15
2018-10-12T10:51:57.198Z,43.18
2018-10-12T10:52:57.149Z,43.72
2018-10-12T10:53:58.801Z,46.14
2018-10-12T10:54:59.610Z,45.39
2018-10-12T10:55:59.738Z,45.1
2018-10-12T10:57:01.525Z,43.16
2018-10-12T10:58:02.662Z,42.77
2018-10-12T10:59:03.193Z,43.13
2018-10-12T11:00:04.321Z,44.01
2018-10-12T11:01:05.617Z,45.27
2018-10-12T11:02:07.152Z,47.5
2018-10-12T11:03:07.806Z,45.17
2018-10-12T11:04:08.343Z,45.97
2018-10-12T11:05:08.881Z,45.58
2018-10-12T11:06:10.518Z,45.27
2018-10-12T11:07:11.560Z,45.17
2018-10-12T11:08:13.099Z,46.04
2018-10-12T11:09:13.467Z,46.92
2018-10-12T11:10:15.295Z,47.2
2018-10-12T11:11:15.845Z,49.02
2018-10-12T11:12:17.811Z,48.61
2018-10-12T11:13:19.044Z,48.15
2018-10-12T11:14:19.521Z,47.64
2018-10-12T11:15:19.894Z,48.06
2018-10-12T11:16:20.987Z,49.22
2018-10-12T11:17:22.083Z,50.29
2018-10-12T11:18:22.621Z,49.82
2018-10-12T11:19:24.389Z,49.05
2018-10-12T11:20:25.146Z,49.05
2018-10-12T11:21:26.788Z,46.53
2018-10-12T11:22:27.349Z,48.2
2018-10-12T11:23:28.831Z,48
2018-10-12T11:24:30.039Z,48.32
2018-10-12T11:25:31.317Z,47.72
2018-10-12T11:26:32.457Z,46.86
2018-10-12T11:27:32.696Z,45.51
2018-10-12T11:28:33.557Z,45.02
2018-10-12T11:29:34.590Z,45.43
2018-10-12T11:30:35.123Z,47.66
2018-10-12T11:31:35.578Z,45.34
2018-10-12T11:32:37.216Z,45.34
2018-10-12T11:33:37.053Z,44.27
2018-10-12T11:34:37.928Z,44.17
2018-10-12T11:35:39.594Z,45.41
2018-10-12T11:36:39.681Z,46.82
2018-10-12T11:37:41.142Z,46.02
2018-10-12T11:38:42.785Z,47.84
2018-10-12T11:39:42.981Z,48.97
2018-10-12T11:40:43.770Z,48.22
2018-10-12T11:41:44.781Z,48.32
2018-10-12T11:42:44.780Z,48.71
2018-10-12T11:43:45.869Z,48.59
2018-10-12T11:44:46.689Z,49.17
2018-10-12T11:45:48.222Z,49.07
2018-10-12T11:46:51.217Z,53.04
2018-10-12T11:47:01.153Z,52.29
2018-10-12T11:48:01.724Z,49.49
2018-10-12T11:49:02.801Z,48.81
2018-10-12T11:50:03.738Z,49.19
2018-10-12T11:51:04.836Z,51.23
2018-10-12T11:52:06.022Z,50.26
2018-10-12T11:53:06.353Z,49.32
2018-10-12T11:54:07.867Z,49.7
2018-10-12T11:55:08.140Z,50.21
2018-10-12T11:56:09.288Z,50.02
2018-10-12T11:57:10.431Z,50.31
2018-10-12T11:58:11.128Z,49.17
2018-10-12T11:59:11.984Z,49.07
2018-10-12T12:00:13.385Z,49.27
2018-10-12T12:01:13.713Z,49.56
2018-10-12T12:02:14.626Z,49.56
2018-10-12T12:03:14.743Z,49.75
2018-10-12T12:04:15.570Z,49.07
2018-10-12T12:05:16.986Z,48.3
2018-10-12T12:06:18.111Z,49.37
2018-10-12T12:07:18.233Z,48.13
2018-10-12T12:08:18.720Z,47.72
2018-10-12T12:09:19.541Z,48.1
2018-10-12T12:10:20.959Z,48.78
2018-10-12T12:11:21.216Z,46.75
2018-10-12T12:12:22.858Z,46.26
2018-10-12T12:13:23.323Z,46.16
2018-10-12T12:14:23.999Z,47.23
2018-10-12T12:15:24.832Z,47.62
2018-10-12T12:16:25.919Z,47.5
2018-10-12T12:17:27.291Z,47.89
2018-10-12T12:18:28.105Z,47.86
2018-10-12T12:19:28.743Z,50.21
2018-10-12T12:20:29.568Z,49.82
2018-10-12T12:21:30.659Z,49.73
2018-10-12T12:22:31.758Z,50.92
2018-10-12T12:23:33.417Z,51.01
2018-10-12T12:24:33.499Z,49.56
2018-10-12T12:25:34.844Z,46.86
2018-10-12T12:26:35.682Z,48.71
2018-10-12T12:27:36.249Z,45.7
2018-10-12T12:28:37.477Z,45.24
2018-10-12T12:29:37.767Z,45.21
2018-10-12T12:30:38.860Z,47.06
2018-10-12T12:31:39.230Z,48.9
2018-10-12T12:32:39.604Z,48.8
2018-10-12T12:33:40.139Z,45.99
2018-10-12T12:34:42.382Z,45.51
2018-10-12T12:35:44.955Z,47.47
2018-10-12T12:35:56.784Z,47.38
2018-10-12T12:36:55.658Z,46.69
2018-10-12T12:37:56.469Z,45.92
2018-10-12T12:38:57.008Z,46.79
2018-10-12T12:39:57.820Z,46.6
2018-10-12T12:40:58.633Z,46.04
2018-10-12T12:42:00.007Z,45.17
2018-10-12T12:43:01.097Z,45.26
2018-10-12T12:44:02.244Z,46.14
2018-10-12T12:45:02.784Z,45.36
2018-10-12T12:46:04.182Z,43.71
2018-10-12T12:47:05.070Z,44.38
2018-10-12T12:48:06.476Z,43.71
2018-10-12T12:49:07.564Z,44.07
2018-10-12T12:50:08.535Z,44.27
2018-10-12T12:51:09.128Z,45.24
2018-10-12T12:52:09.665Z,45.87
2018-10-12T12:53:11.029Z,46.77
2018-10-12T12:54:11.574Z,45.99
2018-10-12T12:55:12.949Z,47.16
2018-10-12T12:56:14.589Z,48.25
2018-10-12T12:57:14.619Z,45.04
2018-10-12T12:58:15.158Z,44.17
2018-10-12T12:59:15.968Z,44.34